createdAt,value
2022-12-29T00:00:46.517Z,95323.2
2022-12-29T00:01:48.839Z,95322.7
2022-12-29T00:02:51.890Z,95319.6
2022-12-29T00:03:55.221Z,95320.3
2022-12-29T00:04:57.828Z,95314.8
2022-12-29T00:06:00.425Z,95315.6
2022-12-29T00:07:02.691Z,95321
2022-12-29T00:08:05.230Z,95318.1
2022-12-29T00:09:07.789Z,95313.6
2022-12-29T00:10:10.340Z,95313.7
2022-12-29T00:11:12.580Z,95313
2022-12-29T00:12:15.171Z,95311.5
2022-12-29T00:13:17.756Z,95310.7
2022-12-29T00:15:24.742Z,95306
2022-12-29T00:16:27.408Z,95302.8
2022-12-29T00:17:30.080Z,95300.5
2022-12-29T00:18:32.583Z,95307.6
2022-12-29T00:19:35.617Z,95307
2022-12-29T00:20:37.645Z,95304.2
2022-12-29T00:21:40.161Z,95301.3
2022-12-29T00:22:42.691Z,95294.8
2022-12-29T00:23:45.385Z,95297.9
2022-12-29T00:24:47.349Z,95299.1
2022-12-29T00:25:49.897Z,95298.9
2022-12-29T00:26:52.406Z,95297.1
2022-12-29T00:27:54.695Z,95300.5
2022-12-29T00:28:57.240Z,95299.2
2022-12-29T00:29:59.806Z,95299.2
2022-12-29T00:31:01.917Z,95298.4
2022-12-29T00:32:04.291Z,95300.2
2022-12-29T00:33:06.541Z,95301.3
2022-12-29T00:34:09.563Z,95297.2
2022-12-29T00:35:12.092Z,95296.1
2022-12-29T00:36:15.219Z,95292.2
2022-12-29T00:37:18.537Z,95289.6
2022-12-29T00:38:21.099Z,95293.4
2022-12-29T00:39:23.353Z,95289.5
2022-12-29T00:40:25.596Z,95289.4
2022-12-29T00:41:28.096Z,95289.8
2022-12-29T00:42:30.685Z,95292.6
2022-12-29T00:43:33.261Z,95289.9
2022-12-29T00:44:35.908Z,95290.7
2022-12-29T00:45:38.153Z,95289.7
2022-12-29T00:46:40.602Z,95287.3
2022-12-29T00:47:42.889Z,95290.4
2022-12-29T00:48:44.866Z,95293.6
2022-12-29T00:49:46.864Z,95290.9
2022-12-29T00:50:49.402Z,95290.1
2022-12-29T00:51:51.913Z,95290.1
2022-12-29T00:52:54.155Z,95293.2
2022-12-29T00:53:56.397Z,95289.6
2022-12-29T00:54:58.622Z,95291.8
2022-12-29T00:56:01.172Z,95292.4
2022-12-29T00:57:03.164Z,95294.7
2022-12-29T00:58:05.466Z,95291.5
2022-12-29T00:59:08.670Z,95283.9
2022-12-29T01:00:10.971Z,95284.3
2022-12-29T01:01:14.541Z,95287.4
2022-12-29T01:02:18.507Z,95291.9
2022-12-29T01:03:21.137Z,95293.7
2022-12-29T01:04:24.071Z,95292.7
2022-12-29T01:05:26.354Z,95293.5
2022-12-29T01:06:28.894Z,95291.1
2022-12-29T01:07:31.504Z,95296.1
2022-12-29T01:08:35.381Z,95294.2
2022-12-29T01:09:37.899Z,95290.1
2022-12-29T01:10:40.154Z,95289.2
2022-12-29T01:11:42.656Z,95289.4
2022-12-29T01:12:45.182Z,95286.7
2022-12-29T01:13:47.742Z,95293.5
2022-12-29T01:14:50.321Z,95296.2
2022-12-29T01:15:53.128Z,95296.3
2022-12-29T01:16:55.808Z,95298.7
2022-12-29T01:17:58.062Z,95297.9
2022-12-29T01:19:00.640Z,95299
2022-12-29T01:20:02.972Z,95296.8
2022-12-29T01:21:05.248Z,95294.7
2022-12-29T01:22:08.523Z,95295.2
2022-12-29T01:23:10.765Z,95293.4
2022-12-29T01:24:13.277Z,95293.2
2022-12-29T01:25:16.173Z,95290
2022-12-29T01:26:20.243Z,95291.8
2022-12-29T01:27:22.776Z,95292.6
2022-12-29T01:29:30.262Z,95296
2022-12-29T01:30:33.295Z,95293.5
2022-12-29T01:31:35.797Z,95291.3
2022-12-29T01:32:38.471Z,95291.5
2022-12-29T01:33:40.744Z,95291.9
2022-12-29T01:34:43.243Z,95296.2
2022-12-29T01:35:45.476Z,95298.6
2022-12-29T01:36:48.035Z,95297.9
2022-12-29T01:37:50.572Z,95296.9
2022-12-29T01:38:52.837Z,95298.4
2022-12-29T01:39:55.357Z,95298
2022-12-29T01:40:57.866Z,95303.4
2022-12-29T01:42:00.522Z,95306.9
2022-12-29T01:43:03.118Z,95306
2022-12-29T01:44:05.643Z,95300.1
2022-12-29T01:45:09.280Z,95306.4
2022-12-29T01:46:11.990Z,95308.2
2022-12-29T01:47:15.363Z,95306.4
2022-12-29T01:48:19.492Z,95300.3
2022-12-29T01:49:21.741Z,95305.7
2022-12-29T01:50:24.263Z,95301
2022-12-29T01:51:26.514Z,95304.2
2022-12-29T01:52:29.042Z,95301.3
2022-12-29T01:53:31.574Z,95304.3
2022-12-29T01:54:33.858Z,95302.6
2022-12-29T01:55:36.352Z,95300.5
2022-12-29T01:56:38.872Z,95302.7
2022-12-29T01:57:41.115Z,95301.9
2022-12-29T01:58:43.649Z,95299.9
2022-12-29T01:59:45.615Z,95299.4
2022-12-29T02:00:48.451Z,95298.8
2022-12-29T02:01:51.715Z,95294.5
2022-12-29T02:02:54.922Z,95293.2
2022-12-29T02:03:56.987Z,95289
2022-12-29T02:06:04.189Z,95286.7
2022-12-29T02:07:07.784Z,95289.3
2022-12-29T02:08:10.321Z,95281.7
2022-12-29T02:09:12.842Z,95286.4
2022-12-29T02:10:16.239Z,95284.3
2022-12-29T02:11:19.381Z,95285.1
2022-12-29T02:12:21.644Z,95278.8
2022-12-29T02:13:23.628Z,95278.5
2022-12-29T02:14:25.892Z,95274.9
2022-12-29T02:15:28.129Z,95277.4
2022-12-29T02:16:31.052Z,95278
2022-12-29T02:17:34.258Z,95283.1
2022-12-29T02:18:36.557Z,95277.8
2022-12-29T02:19:39.090Z,95275.4
2022-12-29T02:20:41.617Z,95276.7
2022-12-29T02:21:43.860Z,95277.6
2022-12-29T02:22:46.372Z,95279.4
2022-12-29T02:23:48.894Z,95276.7
2022-12-29T02:24:51.411Z,95279.4
2022-12-29T02:25:53.633Z,95280.5
2022-12-29T02:26:56.264Z,95282.5
2022-12-29T02:27:58.219Z,95283.5
2022-12-29T02:29:00.749Z,95285.5
2022-12-29T02:30:03.031Z,95287.8
2022-12-29T02:31:05.572Z,95289.8
2022-12-29T02:32:09.266Z,95286.5
2022-12-29T02:33:12.068Z,95282.2
2022-12-29T02:34:15.003Z,95277.8
2022-12-29T02:35:19.357Z,95278.2
2022-12-29T02:36:21.854Z,95275.7
2022-12-29T02:37:24.370Z,95278.5
2022-12-29T02:38:26.868Z,95277.9
2022-12-29T02:39:29.403Z,95280
2022-12-29T02:40:31.631Z,95275.5
2022-12-29T02:41:34.216Z,95280.8
2022-12-29T02:42:36.806Z,95274.3
2022-12-29T02:43:39.311Z,95273.4
2022-12-29T02:44:41.548Z,95272.9
2022-12-29T02:45:44.026Z,95271.3
2022-12-29T02:46:46.646Z,95270.2
2022-12-29T02:47:48.904Z,95266.9
2022-12-29T02:48:51.457Z,95268.9
2022-12-29T02:49:54.060Z,95264.7
2022-12-29T02:50:56.611Z,95266.5
2022-12-29T02:51:59.186Z,95265.1
2022-12-29T02:53:01.205Z,95265.7
2022-12-29T02:54:03.780Z,95264
2022-12-29T02:55:06.025Z,95261.7
2022-12-29T02:56:09.326Z,95261.3
2022-12-29T02:57:11.824Z,95260.3
2022-12-29T02:58:15.301Z,95260.7
2022-12-29T02:59:19.763Z,95258.2
2022-12-29T03:00:22.311Z,95257.4
2022-12-29T03:01:25.407Z,95261.7
2022-12-29T03:02:28.862Z,95261.2
2022-12-29T03:03:31.546Z,95256.9
2022-12-29T03:04:35.406Z,95257.9
2022-12-29T03:05:38.018Z,95255.9
2022-12-29T03:06:40.558Z,95252.8
2022-12-29T03:07:43.062Z,95255.4
2022-12-29T03:08:45.320Z,95253
2022-12-29T03:09:47.635Z,95251.7
2022-12-29T03:10:50.164Z,95247.5
2022-12-29T03:11:52.689Z,95251
2022-12-29T03:12:55.228Z,95248.3
2022-12-29T03:13:57.762Z,95244.7
2022-12-29T03:15:00.007Z,95245.9
2022-12-29T03:16:02.522Z,95241.3
2022-12-29T03:17:04.952Z,95246.2
2022-12-29T03:18:07.366Z,95247.8
2022-12-29T03:19:09.647Z,95244.9
2022-12-29T03:20:12.255Z,95241.4
2022-12-29T03:21:16.049Z,95244.1
2022-12-29T03:22:20.753Z,95240.7
2022-12-29T03:23:23.023Z,95237.2
2022-12-29T03:24:25.565Z,95238
2022-12-29T03:25:28.131Z,95234.9
2022-12-29T03:26:30.358Z,95238.1
2022-12-29T03:27:32.886Z,95235.6
2022-12-29T03:28:35.806Z,95238.6
2022-12-29T03:29:38.351Z,95241.9
2022-12-29T03:30:40.905Z,95238.6
2022-12-29T03:31:43.551Z,95239
2022-12-29T03:32:45.912Z,95236.5
2022-12-29T03:33:48.449Z,95240.5
2022-12-29T03:34:50.681Z,95232.9
2022-12-29T03:35:53.234Z,95234.4
2022-12-29T03:36:55.650Z,95232.2
2022-12-29T03:37:57.904Z,95233.1
2022-12-29T03:39:00.432Z,95238.7
2022-12-29T03:40:02.933Z,95232.2
2022-12-29T03:41:05.474Z,95237.1
2022-12-29T03:42:08.925Z,95240
2022-12-29T03:43:11.479Z,95237.2
2022-12-29T03:44:14.897Z,95235.4
2022-12-29T03:45:19.405Z,95239.2
2022-12-29T03:46:21.949Z,95237
2022-12-29T03:47:24.567Z,95235.7
2022-12-29T03:48:27.203Z,95231.6
2022-12-29T03:49:29.789Z,95234
2022-12-29T03:50:32.337Z,95233.1
2022-12-29T03:51:35.810Z,95234.8
2022-12-29T03:52:38.152Z,95228.4
2022-12-29T03:53:40.696Z,95227.6
2022-12-29T03:54:42.932Z,95228.2
2022-12-29T03:55:45.474Z,95221.3
2022-12-29T03:56:47.733Z,95229.5
2022-12-29T03:57:49.960Z,95224.6
2022-12-29T03:58:52.484Z,95227.1
2022-12-29T03:59:55.049Z,95225
2022-12-29T04:00:57.576Z,95227
2022-12-29T04:02:00.639Z,95225.1
2022-12-29T04:03:04.064Z,95230.3
2022-12-29T04:04:06.577Z,95223.8
2022-12-29T04:05:09.092Z,95226
2022-12-29T04:06:11.614Z,95224.1
2022-12-29T04:07:14.190Z,95224.9
2022-12-29T04:08:17.640Z,95225.1
2022-12-29T04:09:19.941Z,95221.6
2022-12-29T04:10:22.266Z,95217.3
2022-12-29T04:12:29.814Z,95220
2022-12-29T04:13:32.870Z,95220.5
2022-12-29T04:14:35.421Z,95222.6
2022-12-29T04:15:38.183Z,95217.3
2022-12-29T04:16:40.671Z,95219.6
2022-12-29T04:17:43.302Z,95225.4
2022-12-29T04:18:45.519Z,95218.3
2022-12-29T04:19:48.074Z,95225
2022-12-29T04:20:50.603Z,95229
2022-12-29T04:21:53.163Z,95229.2
2022-12-29T04:22:55.737Z,95225.6
2022-12-29T04:23:58.306Z,95224.9
2022-12-29T04:25:00.856Z,95219.4
2022-12-29T04:26:03.359Z,95217
2022-12-29T04:27:05.661Z,95217.5
2022-12-29T04:28:09.247Z,95221.3
2022-12-29T04:29:11.834Z,95218.5
2022-12-29T04:30:15.701Z,95214.8
2022-12-29T04:31:22.501Z,95218.1
2022-12-29T04:32:25.264Z,95216.8
2022-12-29T04:33:27.790Z,95217.1
2022-12-29T04:34:30.316Z,95218.8
2022-12-29T04:35:32.880Z,95215.7
2022-12-29T04:36:36.123Z,95215.6
2022-12-29T04:37:38.686Z,95215.2
2022-12-29T04:38:40.664Z,95215.8
2022-12-29T04:39:43.241Z,95215.9
2022-12-29T04:40:45.530Z,95219.4
2022-12-29T04:41:48.095Z,95213.5
2022-12-29T04:42:50.380Z,95216.4
2022-12-29T04:43:52.305Z,95211.1
2022-12-29T04:44:54.697Z,95208.8
2022-12-29T04:45:56.903Z,95214.2
2022-12-29T04:46:59.514Z,95205.8
2022-12-29T04:48:02.051Z,95206.2
2022-12-29T04:49:04.289Z,95206.8
2022-12-29T04:50:06.844Z,95204.7
2022-12-29T04:51:09.343Z,95206.8
2022-12-29T04:52:11.896Z,95196.4
2022-12-29T04:53:14.519Z,95199.5
2022-12-29T04:54:17.155Z,95204.8
2022-12-29T04:55:20.484Z,95203.2
2022-12-29T04:56:23.045Z,95204.1
2022-12-29T04:57:25.558Z,95204.4
2022-12-29T04:58:28.054Z,95207
2022-12-29T04:59:30.561Z,95206.5
2022-12-29T05:00:33.081Z,95209.3
2022-12-29T05:01:36.880Z,95204.6
2022-12-29T05:02:40.920Z,95212.7
2022-12-29T05:03:44.161Z,95208.8
2022-12-29T05:04:46.501Z,95213.3
2022-12-29T05:05:48.779Z,95215.5
2022-12-29T05:06:51.026Z,95221.5
2022-12-29T05:07:53.592Z,95218.7
2022-12-29T05:08:55.837Z,95217.6
2022-12-29T05:09:58.386Z,95218.9
2022-12-29T05:11:00.712Z,95216.9
2022-12-29T05:12:03.264Z,95224.2
2022-12-29T05:13:05.772Z,95220.5
2022-12-29T05:14:09.090Z,95220.1
2022-12-29T05:15:11.672Z,95220.6
2022-12-29T05:16:15.201Z,95221.6
2022-12-29T05:17:19.100Z,95219.8
2022-12-29T05:18:21.676Z,95224.6
2022-12-29T05:19:24.203Z,95224.5
2022-12-29T05:20:26.589Z,95227.1
2022-12-29T05:21:28.536Z,95223.3
2022-12-29T05:22:31.041Z,95223.4
2022-12-29T05:23:33.726Z,95225.8
2022-12-29T05:24:36.233Z,95227.7
2022-12-29T05:25:38.541Z,95222
2022-12-29T05:26:41.115Z,95224.4
2022-12-29T05:27:43.651Z,95226.5
2022-12-29T05:28:46.161Z,95227.3
2022-12-29T05:29:48.918Z,95227.7
2022-12-29T05:30:51.453Z,95229.8
2022-12-29T05:31:54.015Z,95227.7
2022-12-29T05:32:56.688Z,95222.3
2022-12-29T05:33:59.190Z,95219.1
2022-12-29T05:35:01.777Z,95220.9
2022-12-29T05:36:03.748Z,95215.6
2022-12-29T05:37:05.983Z,95214.6
2022-12-29T05:38:09.097Z,95217.8
2022-12-29T05:39:11.607Z,95219.9
2022-12-29T05:40:14.921Z,95213.9
2022-12-29T05:41:17.578Z,95216.8
2022-12-29T05:42:20.861Z,95218.9
2022-12-29T05:43:23.404Z,95212.7
2022-12-29T05:44:25.923Z,95214.6
2022-12-29T05:45:28.499Z,95211.9
2022-12-29T05:46:30.992Z,95207.1
2022-12-29T05:47:34.592Z,95209.8
2022-12-29T05:49:41.788Z,95210.3
2022-12-29T05:50:44.120Z,95210
2022-12-29T05:51:46.711Z,95208.8
2022-12-29T05:52:49.240Z,95210
2022-12-29T05:53:51.799Z,95212.6
2022-12-29T05:54:54.046Z,95213
2022-12-29T05:55:56.026Z,95214.8
2022-12-29T05:56:58.592Z,95211.6
2022-12-29T05:58:01.180Z,95211
2022-12-29T05:59:03.748Z,95206.5
2022-12-29T06:00:06.424Z,95209.8
2022-12-29T06:01:09.157Z,95210.1
2022-12-29T06:02:12.348Z,95211.2
2022-12-29T06:03:15.856Z,95212.6
2022-12-29T06:04:18.950Z,95213.1
2022-12-29T06:05:21.460Z,95210.3
2022-12-29T06:06:24.034Z,95215
2022-12-29T06:07:26.550Z,95210.4
2022-12-29T06:08:29.058Z,95213.5
2022-12-29T06:09:31.000Z,95212
2022-12-29T06:10:33.556Z,95209.8
2022-12-29T06:11:36.053Z,95214.4
2022-12-29T06:12:38.615Z,95209.8
2022-12-29T06:13:41.213Z,95216
2022-12-29T06:14:43.776Z,95214.8
2022-12-29T06:15:46.279Z,95213
2022-12-29T06:16:49.264Z,95214.3
2022-12-29T06:17:51.866Z,95214.1
2022-12-29T06:18:54.122Z,95213.5
2022-12-29T06:19:56.691Z,95213
2022-12-29T06:20:58.940Z,95213.8
2022-12-29T06:22:01.204Z,95214
2022-12-29T06:23:03.467Z,95217.4
2022-12-29T06:24:05.784Z,95217.2
2022-12-29T06:25:08.614Z,95216.6
2022-12-29T06:26:11.143Z,95220.1
2022-12-29T06:27:13.667Z,95224.7
2022-12-29T06:28:18.057Z,95223.2
2022-12-29T06:29:20.685Z,95224.5
2022-12-29T06:30:22.962Z,95219.5
2022-12-29T06:31:25.671Z,95216.4
2022-12-29T06:32:28.054Z,95220.3
2022-12-29T06:33:30.552Z,95220.7
2022-12-29T06:34:32.872Z,95220.1
2022-12-29T06:35:35.123Z,95223
2022-12-29T06:36:37.700Z,95221.1
2022-12-29T06:37:40.241Z,95218.3
2022-12-29T06:38:42.810Z,95224.4
2022-12-29T06:39:45.118Z,95221.8
2022-12-29T06:40:47.662Z,95222.3
2022-12-29T06:41:50.225Z,95227.7
2022-12-29T06:42:52.204Z,95224.8
2022-12-29T06:43:54.795Z,95222.7
2022-12-29T06:44:57.361Z,95228.6
2022-12-29T06:46:00.330Z,95224.9
2022-12-29T06:47:02.665Z,95223.3
2022-12-29T06:48:05.330Z,95224.6
2022-12-29T06:49:08.589Z,95226.9
2022-12-29T06:50:11.123Z,95227.1
2022-12-29T06:51:13.668Z,95227.3
2022-12-29T06:52:16.195Z,95223.1
2022-12-29T06:53:18.727Z,95218.1
2022-12-29T06:54:21.259Z,95230.6
2022-12-29T06:55:23.525Z,95229.8
2022-12-29T06:56:25.832Z,95226.9
2022-12-29T06:57:27.832Z,95224.3
2022-12-29T06:58:30.080Z,95223.8
2022-12-29T06:59:32.653Z,95229.6
2022-12-29T07:00:35.301Z,95224.7
2022-12-29T07:01:38.607Z,95221.2
2022-12-29T07:02:41.991Z,95226.4
2022-12-29T07:03:44.393Z,95233.2
2022-12-29T07:04:46.952Z,95229.6
2022-12-29T07:05:49.490Z,95236.3
2022-12-29T07:06:52.013Z,95235.8
2022-12-29T07:07:54.396Z,95234.9
2022-12-29T07:08:56.923Z,95229.8
2022-12-29T07:09:59.499Z,95232.5
2022-12-29T07:11:01.729Z,95235.3
2022-12-29T07:12:04.273Z,95242.9
2022-12-29T07:13:07.490Z,95238.4
2022-12-29T07:14:10.031Z,95242.6
2022-12-29T07:15:12.152Z,95249.1
2022-12-29T07:16:15.162Z,95250.7
2022-12-29T07:17:18.005Z,95247.6
2022-12-29T07:18:20.254Z,95245.7
2022-12-29T07:19:22.540Z,95253.8
2022-12-29T07:21:29.790Z,95263.9
2022-12-29T07:22:32.309Z,95261.2
2022-12-29T07:23:35.157Z,95259.3
2022-12-29T07:24:37.446Z,95264.1
2022-12-29T07:25:39.959Z,95268.7
2022-12-29T07:26:42.280Z,95265.9
2022-12-29T07:27:44.873Z,95267.6
2022-12-29T07:28:47.123Z,95264.5
2022-12-29T07:29:49.660Z,95265.3
2022-12-29T07:30:51.961Z,95267.3
2022-12-29T07:31:54.572Z,95269.5
2022-12-29T07:32:57.277Z,95270.9
2022-12-29T07:33:59.271Z,95274.1
2022-12-29T07:35:01.806Z,95274.7
2022-12-29T07:36:04.342Z,95274.1
2022-12-29T07:37:06.879Z,95276.5
2022-12-29T07:38:09.287Z,95275.6
2022-12-29T07:39:11.844Z,95273.3
2022-12-29T07:40:14.895Z,95273.3
2022-12-29T07:41:18.456Z,95276.9
2022-12-29T07:42:20.982Z,95272.5
2022-12-29T07:43:23.215Z,95271.9
2022-12-29T07:44:25.179Z,95274
2022-12-29T07:45:27.421Z,95271.2
2022-12-29T07:47:35.647Z,95272.7
2022-12-29T07:48:37.687Z,95272.8
2022-12-29T07:49:40.214Z,95270.7
2022-12-29T07:50:42.494Z,95274.8
2022-12-29T07:51:44.709Z,95275
2022-12-29T07:52:47.273Z,95275.3
2022-12-29T07:53:49.805Z,95274.7
2022-12-29T07:54:52.307Z,95275.6
2022-12-29T07:55:54.525Z,95276.2
2022-12-29T07:56:57.056Z,95277.7
2022-12-29T07:57:59.398Z,95278.5
2022-12-29T07:59:02.054Z,95276.4
2022-12-29T08:00:04.619Z,95278.9
2022-12-29T08:01:07.009Z,95274.8
2022-12-29T08:02:10.442Z,95280.8
2022-12-29T08:03:12.806Z,95281.3
2022-12-29T08:04:15.615Z,95271.2
2022-12-29T08:05:17.951Z,95275.8
2022-12-29T08:06:20.597Z,95276.6
2022-12-29T08:07:23.156Z,95275.4
2022-12-29T08:08:25.675Z,95275.8
2022-12-29T08:09:28.202Z,95275.3
2022-12-29T08:10:30.477Z,95275.5
2022-12-29T08:11:33.003Z,95277.6
2022-12-29T08:12:36.050Z,95279.3
2022-12-29T08:13:38.538Z,95275.2
2022-12-29T08:14:40.843Z,95276.5
2022-12-29T08:15:43.632Z,95274.9
2022-12-29T08:16:45.995Z,95272.5
2022-12-29T08:17:48.523Z,95270.8
2022-12-29T08:18:50.844Z,95272.2
2022-12-29T08:19:53.403Z,95268.4
2022-12-29T08:20:57.207Z,95272
2022-12-29T08:21:59.795Z,95266.3
2022-12-29T08:23:02.303Z,95267.2
2022-12-29T08:24:04.550Z,95265.2
2022-12-29T08:25:06.233Z,95271.1
2022-12-29T08:26:08.261Z,95266.9
2022-12-29T08:28:14.923Z,95272.4
2022-12-29T08:29:17.497Z,95272.5
2022-12-29T08:30:20.061Z,95273.8
2022-12-29T08:31:22.873Z,95278.7
2022-12-29T08:32:25.204Z,95275.6
2022-12-29T08:33:27.724Z,95275.5
2022-12-29T08:34:30.312Z,95273.4
2022-12-29T08:35:32.870Z,95281
2022-12-29T08:36:36.148Z,95274.8
2022-12-29T08:37:38.657Z,95279.8
2022-12-29T08:38:40.886Z,95274.6
2022-12-29T08:39:43.415Z,95271.4
2022-12-29T08:40:45.941Z,95271.4
2022-12-29T08:41:48.646Z,95267.8
2022-12-29T08:42:51.304Z,95265.4
2022-12-29T08:43:53.541Z,95270.6
2022-12-29T08:44:56.040Z,95271
2022-12-29T08:45:58.369Z,95271.2
2022-12-29T08:47:00.763Z,95270.5
2022-12-29T08:48:03.279Z,95271.9
2022-12-29T08:49:05.877Z,95268.8
2022-12-29T08:50:08.524Z,95270.3
2022-12-29T08:51:11.205Z,95270.5
2022-12-29T08:52:14.188Z,95272.5
2022-12-29T08:53:16.198Z,95270
2022-12-29T08:54:18.198Z,95276.2
2022-12-29T08:55:20.731Z,95275.4
2022-12-29T08:56:23.007Z,95278.6
2022-12-29T08:57:25.451Z,95284.9
2022-12-29T08:58:27.696Z,95282.4
2022-12-29T08:59:30.260Z,95285.3
2022-12-29T09:00:32.809Z,95286.3
2022-12-29T09:01:35.936Z,95292.5
2022-12-29T09:02:40.437Z,95286.6
2022-12-29T09:04:49.175Z,95294.1
2022-12-29T09:05:52.504Z,95292.7
2022-12-29T09:06:55.740Z,95293.8
2022-12-29T09:07:58.478Z,95298.9
2022-12-29T09:09:00.685Z,95299.7
2022-12-29T09:10:03.204Z,95295.3
2022-12-29T09:11:05.668Z,95297.6
2022-12-29T09:12:08.176Z,95293
2022-12-29T09:13:10.424Z,95298.4
2022-12-29T09:14:13.614Z,95292.8
2022-12-29T09:15:16.143Z,95303.9
2022-12-29T09:16:18.891Z,95306.7
2022-12-29T09:17:21.365Z,95306.8
2022-12-29T09:18:23.892Z,95304.4
2022-12-29T09:19:26.396Z,95299.5
2022-12-29T09:20:28.953Z,95299.5
2022-12-29T09:21:31.606Z,95300.9
2022-12-29T09:22:33.969Z,95299
2022-12-29T09:23:36.572Z,95302.3
2022-12-29T09:24:38.528Z,95299.7
2022-12-29T09:25:41.078Z,95306.3
2022-12-29T09:27:48.293Z,95301.3
2022-12-29T09:28:50.826Z,95299
2022-12-29T09:29:53.103Z,95299.5
2022-12-29T09:30:55.585Z,95301.1
2022-12-29T09:31:57.937Z,95300.8
2022-12-29T09:33:00.377Z,95300.3
2022-12-29T09:34:02.903Z,95300.2
2022-12-29T09:35:04.648Z,95294.8
2022-12-29T09:36:07.339Z,95294.8
2022-12-29T09:37:09.659Z,95293.9
2022-12-29T09:38:12.258Z,95284.6
2022-12-29T09:39:14.814Z,95283.3
2022-12-29T09:40:17.151Z,95282.1
2022-12-29T09:41:19.414Z,95279.4
2022-12-29T09:42:21.419Z,95282.9
2022-12-29T09:43:24.800Z,95286.1
2022-12-29T09:44:27.072Z,95286.2
2022-12-29T09:45:29.667Z,95286.3
2022-12-29T09:46:31.974Z,95292.3
2022-12-29T09:47:35.690Z,95289.3
2022-12-29T09:48:38.065Z,95288.8
2022-12-29T09:49:40.602Z,95292.1
2022-12-29T09:50:43.138Z,95295.8
2022-12-29T09:51:45.691Z,95288.7
2022-12-29T09:52:48.026Z,95286.7
2022-12-29T09:53:50.620Z,95288.1
2022-12-29T09:55:57.880Z,95287.2
2022-12-29T09:57:00.417Z,95284
2022-12-29T09:58:02.663Z,95285.3
2022-12-29T09:59:05.183Z,95283.3
2022-12-29T10:00:07.478Z,95286.3
2022-12-29T10:01:10.424Z,95277.3
2022-12-29T10:02:14.257Z,95279.5
2022-12-29T10:03:17.483Z,95279.7
2022-12-29T10:04:19.897Z,95274
2022-12-29T10:05:22.165Z,95269.1
2022-12-29T10:06:26.301Z,95272.4
2022-12-29T10:08:33.979Z,95272
2022-12-29T10:09:36.615Z,95273.9
2022-12-29T10:10:38.857Z,95274.7
2022-12-29T10:11:40.867Z,95267.9
2022-12-29T10:12:43.084Z,95271.6
2022-12-29T10:13:45.332Z,95272
2022-12-29T10:14:47.877Z,95264.6
2022-12-29T10:15:50.288Z,95264.3
2022-12-29T10:16:53.348Z,95269.9
2022-12-29T10:17:55.630Z,95267.2
2022-12-29T10:18:58.205Z,95266.3
2022-12-29T10:20:00.741Z,95264.6
2022-12-29T10:21:02.997Z,95270
2022-12-29T10:22:05.543Z,95273.2
2022-12-29T10:23:07.825Z,95266.1
2022-12-29T10:24:10.547Z,95262.7
2022-12-29T10:25:13.136Z,95261.3
2022-12-29T10:26:15.252Z,95256
2022-12-29T10:27:17.793Z,95259.8
2022-12-29T10:28:20.552Z,95261.9
2022-12-29T10:29:22.984Z,95256.2
2022-12-29T10:30:25.547Z,95261.1
2022-12-29T10:31:28.055Z,95256
2022-12-29T10:32:30.386Z,95256.8
2022-12-29T10:33:32.931Z,95256.2
2022-12-29T10:34:35.207Z,95255.8
2022-12-29T10:35:37.483Z,95258.3
2022-12-29T10:36:39.791Z,95255.9
2022-12-29T10:37:41.789Z,95257.1
2022-12-29T10:38:43.773Z,95253.7
2022-12-29T10:39:46.149Z,95253.6
2022-12-29T10:40:48.172Z,95250.5
2022-12-29T10:41:50.713Z,95247.3
2022-12-29T10:42:53.279Z,95249
2022-12-29T10:43:55.824Z,95247.5
2022-12-29T10:44:58.117Z,95243.9
2022-12-29T10:46:00.982Z,95241
2022-12-29T10:47:03.663Z,95244.2
2022-12-29T10:48:05.990Z,95239.2
2022-12-29T10:49:08.531Z,95240.9
2022-12-29T10:50:10.810Z,95237.7
2022-12-29T10:51:12.485Z,95239.7
2022-12-29T10:52:15.022Z,95239.5
2022-12-29T10:53:17.269Z,95236.8
2022-12-29T10:54:19.829Z,95236.8
2022-12-29T10:55:22.550Z,95233.8
2022-12-29T10:56:24.837Z,95231.6
2022-12-29T10:57:27.101Z,95226.5
2022-12-29T10:58:29.078Z,95231.2
2022-12-29T10:59:31.351Z,95232.1
2022-12-29T11:00:34.373Z,95226.5
2022-12-29T11:01:37.584Z,95231.3
2022-12-29T11:02:41.157Z,95225.5
2022-12-29T11:03:43.719Z,95231.8
2022-12-29T11:04:46.047Z,95232.3
2022-12-29T11:05:48.319Z,95222.9
2022-12-29T11:06:50.843Z,95229.6
2022-12-29T11:07:53.154Z,95221.5
2022-12-29T11:08:55.418Z,95213.8
2022-12-29T11:09:57.987Z,95223.2
2022-12-29T11:11:00.641Z,95218
2022-12-29T11:12:03.238Z,95216.1
2022-12-29T11:13:05.519Z,95220.6
2022-12-29T11:14:07.819Z,95214
2022-12-29T11:15:09.892Z,95214.1
2022-12-29T11:16:11.796Z,95210.9
2022-12-29T11:17:13.832Z,95212.8
2022-12-29T11:18:16.341Z,95208.4
2022-12-29T11:19:18.853Z,95206.8
2022-12-29T11:20:21.349Z,95208.2
2022-12-29T11:21:23.635Z,95202.4
2022-12-29T11:22:25.939Z,95199.2
2022-12-29T11:23:27.948Z,95207.7
2022-12-29T11:24:30.542Z,95203.7
2022-12-29T11:25:33.972Z,95200.1
2022-12-29T11:26:37.054Z,95193.2
2022-12-29T11:27:39.627Z,95199.4
2022-12-29T11:28:41.908Z,95193.4
2022-12-29T11:29:44.207Z,95189.5
2022-12-29T11:30:46.756Z,95196.7
2022-12-29T11:31:49.725Z,95195
2022-12-29T11:32:51.807Z,95198.9
2022-12-29T11:33:54.332Z,95192.4
2022-12-29T11:34:56.317Z,95195.2
2022-12-29T11:35:58.582Z,95192.9
2022-12-29T11:37:00.865Z,95181.5
2022-12-29T11:38:03.451Z,95186.1
2022-12-29T11:40:10.998Z,95181.8
2022-12-29T11:41:13.323Z,95184.1
2022-12-29T11:42:15.949Z,95183.5
2022-12-29T11:43:17.942Z,95185.7
2022-12-29T11:44:20.908Z,95180.4
2022-12-29T11:45:23.187Z,95178.9
2022-12-29T11:46:25.957Z,95177.8
2022-12-29T11:47:28.388Z,95182.8
2022-12-29T11:48:31.099Z,95180.2
2022-12-29T11:49:33.368Z,95176.9
2022-12-29T11:50:35.902Z,95174.3
2022-12-29T11:51:38.402Z,95180.8
2022-12-29T11:52:40.849Z,95179.5
2022-12-29T11:53:43.360Z,95171
2022-12-29T11:54:45.936Z,95180
2022-12-29T11:55:48.177Z,95178.9
2022-12-29T11:56:49.880Z,95183.4
2022-12-29T11:57:52.485Z,95175.2
2022-12-29T11:58:55.089Z,95175
2022-12-29T11:59:57.358Z,95179.7
2022-12-29T12:00:59.663Z,95185.6
2022-12-29T12:02:02.827Z,95183.3
2022-12-29T12:03:06.272Z,95182
2022-12-29T12:04:09.259Z,95179.8
2022-12-29T12:05:11.692Z,95182.8
2022-12-29T12:06:13.967Z,95177.9
2022-12-29T12:07:16.473Z,95175.2
2022-12-29T12:09:23.726Z,95170.1
2022-12-29T12:10:26.284Z,95171.3
2022-12-29T12:11:28.321Z,95173.3
2022-12-29T12:12:30.971Z,95167.8
2022-12-29T12:13:33.664Z,95162.8
2022-12-29T12:14:36.294Z,95162.9
2022-12-29T12:16:44.137Z,95173.1
2022-12-29T12:17:46.888Z,95166.3
2022-12-29T12:18:49.516Z,95164.8
2022-12-29T12:19:51.818Z,95160.6
2022-12-29T12:20:54.361Z,95165
2022-12-29T12:21:56.881Z,95153.7
2022-12-29T12:22:59.147Z,95159.5
2022-12-29T12:24:01.668Z,95154.7
2022-12-29T12:25:03.938Z,95152.3
2022-12-29T12:26:05.952Z,95155.5
2022-12-29T12:27:08.523Z,95155.3
2022-12-29T12:28:10.783Z,95154.5
2022-12-29T12:29:13.174Z,95146.9
2022-12-29T12:30:15.476Z,95145.9
2022-12-29T12:31:18.388Z,95149.2
2022-12-29T12:32:20.618Z,95146.6
2022-12-29T12:33:22.895Z,95143.9
2022-12-29T12:34:25.155Z,95142.2
2022-12-29T12:35:28.098Z,95142.1
2022-12-29T12:36:30.084Z,95145.2
2022-12-29T12:37:32.385Z,95145.7
2022-12-29T12:38:34.535Z,95145.3
2022-12-29T12:39:36.831Z,95145.6
2022-12-29T12:40:39.162Z,95141.2
2022-12-29T12:41:41.762Z,95143.1
2022-12-29T12:42:44.311Z,95142.2
2022-12-29T12:43:46.917Z,95138.4
2022-12-29T12:44:49.523Z,95137.5
2022-12-29T12:45:52.249Z,95137.5
2022-12-29T12:46:55.311Z,95145
2022-12-29T12:47:58.015Z,95141.8
2022-12-29T12:49:00.544Z,95141.4
2022-12-29T12:50:02.239Z,95133.6
2022-12-29T12:51:04.475Z,95139.1
2022-12-29T12:52:07.472Z,95141.9
2022-12-29T12:53:10.029Z,95136.4
2022-12-29T12:54:12.452Z,95136.6
2022-12-29T12:55:15.161Z,95131.5
2022-12-29T12:56:17.429Z,95132
2022-12-29T12:57:19.956Z,95135.3